createdAt,value
2018-03-19T00:01:52.298Z,39.00
2018-03-19T00:04:19.849Z,39.60
2018-03-19T00:06:47.790Z,39.60
2018-03-19T00:09:15.477Z,39.90
2018-03-19T00:11:43.022Z,40.10
2018-03-19T00:14:10.568Z,39.60
2018-03-19T00:16:38.459Z,40.10
2018-03-19T00:19:06.000Z,39.80
2018-03-19T00:21:33.551Z,39.90
2018-03-19T00:24:01.248Z,40.00
2018-03-19T00:26:28.794Z,40.50
2018-03-19T00:28:56.347Z,40.10
2018-03-19T00:31:24.233Z,40.60
2018-03-19T00:33:51.779Z,40.00
2018-03-19T00:36:19.322Z,39.90
2018-03-19T00:38:47.010Z,40.00
2018-03-19T00:41:14.561Z,40.20
2018-03-19T00:43:42.110Z,40.30
2018-03-19T00:46:10.010Z,39.80
2018-03-19T00:48:37.558Z,40.40
2018-03-19T00:51:05.139Z,39.70
2018-03-19T00:53:33.532Z,40.30
2018-03-19T00:56:01.082Z,40.30
2018-03-19T00:58:29.403Z,40.50
2018-03-19T01:00:57.029Z,40.50
2018-03-19T01:03:25.342Z,40.50
2018-03-19T01:05:52.897Z,40.50
2018-03-19T01:08:21.010Z,39.70
2018-03-19T01:10:48.569Z,40.30
2018-03-19T01:13:17.626Z,39.50
2018-03-19T01:15:45.600Z,39.50
2018-03-19T01:18:13.157Z,39.70
2018-03-19T01:20:40.703Z,39.60
2018-03-19T01:23:08.412Z,39.60
2018-03-19T01:25:35.968Z,40.10
2018-03-19T01:28:03.519Z,40.30
2018-03-19T01:30:31.218Z,40.50
2018-03-19T01:32:59.537Z,40.50
2018-03-19T01:35:27.086Z,40.30
2018-03-19T01:37:55.578Z,40.60
2018-03-19T01:40:23.126Z,40.40
2018-03-19T01:42:50.700Z,40.00
2018-03-19T01:45:18.593Z,40.50
2018-03-19T01:47:46.147Z,40.50
2018-03-19T01:50:13.696Z,40.20
2018-03-19T01:52:49.374Z,40.80
2018-03-19T01:55:16.923Z,40.50
2018-03-19T01:57:45.984Z,40.90
2018-03-19T02:00:13.784Z,40.90
2018-03-19T02:02:41.333Z,40.30
2018-03-19T02:05:08.887Z,41.30
2018-03-19T02:07:36.771Z,41.30
2018-03-19T02:10:04.322Z,41.10
2018-03-19T02:12:31.872Z,41.30
2018-03-19T02:14:59.807Z,41.90
2018-03-19T02:17:27.358Z,41.50
2018-03-19T02:19:54.911Z,41.20
2018-03-19T02:22:23.760Z,42.30
2018-03-19T02:24:51.315Z,42.30
2018-03-19T02:27:19.110Z,42.30
2018-03-19T02:29:47.503Z,42.20
2018-03-19T02:32:15.083Z,42.20
2018-03-19T02:34:42.651Z,42.40
2018-03-19T02:37:10.555Z,42.30
2018-03-19T02:39:38.114Z,42.60
2018-03-19T02:42:05.672Z,42.40
2018-03-19T02:44:33.285Z,42.40
2018-03-19T02:47:00.863Z,42.40
2018-03-19T02:49:28.419Z,42.10
2018-03-19T02:51:56.067Z,43.40
2018-03-19T02:54:23.626Z,42.50
2018-03-19T02:56:51.182Z,42.60
2018-03-19T02:59:18.768Z,42.50
2018-03-19T03:01:46.322Z,42.40
2018-03-19T03:04:13.878Z,43.00
2018-03-19T03:06:41.522Z,43.90
2018-03-19T03:09:09.070Z,43.20
2018-03-19T03:11:36.626Z,43.70
2018-03-19T03:14:06.046Z,43.40
2018-03-19T03:16:33.598Z,43.40
2018-03-19T03:19:01.148Z,42.90
2018-03-19T03:21:28.744Z,43.10
2018-03-19T03:23:56.307Z,43.40
2018-03-19T03:26:23.858Z,43.80
2018-03-19T03:28:51.857Z,43.50
2018-03-19T03:31:19.419Z,43.50
2018-03-19T03:33:46.972Z,44.10
2018-03-19T03:36:14.844Z,44.10
2018-03-19T03:38:42.394Z,43.70
2018-03-19T03:41:09.946Z,43.60
2018-03-19T03:43:37.674Z,43.20
2018-03-19T03:46:05.221Z,43.60
2018-03-19T03:48:32.771Z,43.50
2018-03-19T03:51:00.380Z,43.50
2018-03-19T03:53:27.934Z,43.80
2018-03-19T03:55:55.494Z,44.20
2018-03-19T03:58:23.406Z,44.40
2018-03-19T04:00:50.956Z,44.10
2018-03-19T04:03:18.507Z,44.60
2018-03-19T04:05:47.184Z,44.40
2018-03-19T04:08:14.736Z,44.40
2018-03-19T04:10:42.290Z,44.80
2018-03-19T04:13:09.995Z,44.20
2018-03-19T04:15:38.329Z,44.70
2018-03-19T04:18:05.886Z,44.70
2018-03-19T04:20:33.784Z,44.60
2018-03-19T04:23:01.351Z,44.40
2018-03-19T04:25:28.910Z,45.90
2018-03-19T04:27:56.785Z,45.50
2018-03-19T04:30:24.336Z,45.40
2018-03-19T04:32:51.928Z,45.40
2018-03-19T04:35:19.892Z,45.50
2018-03-19T04:37:48.212Z,46.20
2018-03-19T04:40:15.762Z,46.30
2018-03-19T04:42:43.658Z,45.70
2018-03-19T04:45:11.212Z,45.60
2018-03-19T04:47:38.767Z,45.80
2018-03-19T04:50:06.675Z,47.10
2018-03-19T04:52:34.992Z,46.70
2018-03-19T04:55:02.838Z,46.70
2018-03-19T04:57:30.677Z,46.70
2018-03-19T04:59:59.001Z,47.20
2018-03-19T05:02:26.561Z,47.20
2018-03-19T05:04:54.320Z,46.90
2018-03-19T05:07:21.870Z,47.60
2018-03-19T05:09:49.420Z,47.60
2018-03-19T05:12:18.064Z,47.60
2018-03-19T05:14:45.614Z,47.60
2018-03-19T05:17:13.173Z,48.80
2018-03-19T05:19:42.099Z,49.10
2018-03-19T05:22:10.410Z,48.50
2018-03-19T05:24:37.970Z,48.60
2018-03-19T05:27:05.569Z,48.50
2018-03-19T05:29:33.120Z,48.30
2018-03-19T05:32:00.697Z,48.90
2018-03-19T05:34:28.513Z,48.50
2018-03-19T05:36:56.054Z,48.80
2018-03-19T05:39:23.598Z,48.60
2018-03-19T05:41:52.382Z,49.10
2018-03-19T05:44:20.701Z,49.10
2018-03-19T05:46:48.249Z,49.70
2018-03-19T05:49:16.566Z,49.10
2018-03-19T05:51:44.108Z,49.00
2018-03-19T05:54:11.651Z,50.00
2018-03-19T05:56:39.797Z,49.10
2018-03-19T05:59:08.104Z,49.80
2018-03-19T06:01:35.690Z,49.90
2018-03-19T06:04:03.385Z,49.70
2018-03-19T06:06:31.708Z,50.10
2018-03-19T06:08:59.253Z,50.10
2018-03-19T06:11:26.949Z,49.70
2018-03-19T06:13:54.500Z,50.40
2018-03-19T06:16:22.049Z,50.20
2018-03-19T06:18:50.355Z,50.50
2018-03-19T06:21:18.635Z,49.90
2018-03-19T06:23:46.180Z,50.40
2018-03-19T06:26:15.189Z,49.90
2018-03-19T06:28:42.737Z,50.10
2018-03-19T06:31:10.288Z,50.20
2018-03-19T06:33:39.910Z,51.00
2018-03-19T06:36:07.462Z,50.00
2018-03-19T06:38:35.802Z,50.00
2018-03-19T06:41:03.406Z,50.20
2018-03-19T06:43:30.962Z,50.00
2018-03-19T06:45:59.444Z,49.60
2018-03-19T06:48:29.051Z,50.00
2018-03-19T06:50:56.591Z,50.20
2018-03-19T06:53:24.146Z,50.00
2018-03-19T06:55:52.034Z,50.10
2018-03-19T06:58:19.599Z,50.10
2018-03-19T07:00:48.595Z,50.10
2018-03-19T07:03:16.143Z,50.30
2018-03-19T07:05:44.122Z,50.10
2018-03-19T07:08:11.673Z,50.10
2018-03-19T07:10:39.234Z,49.60
2018-03-19T07:13:07.753Z,50.60
2018-03-19T07:15:36.061Z,50.60
2018-03-19T07:18:03.623Z,50.60
2018-03-19T07:20:32.344Z,50.30
2018-03-19T07:22:59.900Z,49.70
2018-03-19T07:25:27.445Z,49.70
2018-03-19T07:27:55.325Z,49.80
2018-03-19T07:30:22.868Z,50.10
2018-03-19T07:32:51.593Z,49.90
2018-03-19T07:35:19.958Z,49.00
2018-03-19T07:37:47.508Z,49.00
2018-03-19T07:40:15.050Z,49.00
2018-03-19T07:42:43.769Z,49.10
2018-03-19T07:45:11.311Z,48.70
2018-03-19T07:47:38.862Z,48.90
2018-03-19T07:50:09.635Z,49.80
2018-03-19T07:52:38.060Z,49.50
2018-03-19T07:55:05.609Z,49.10
2018-03-19T07:57:34.710Z,48.50
2018-03-19T08:00:02.254Z,47.90
2018-03-19T08:02:29.789Z,47.50
2018-03-19T08:05:00.286Z,47.80
2018-03-19T08:07:27.828Z,47.80
2018-03-19T08:09:55.400Z,46.50
2018-03-19T08:12:26.849Z,46.50
2018-03-19T08:14:54.417Z,46.30
2018-03-19T08:17:21.984Z,46.60
2018-03-19T08:19:51.171Z,46.50
2018-03-19T08:22:18.714Z,46.50
2018-03-19T08:24:46.263Z,46.30
2018-03-19T08:27:14.773Z,46.40
2018-03-19T08:29:42.326Z,46.70
2018-03-19T08:32:09.882Z,46.60
2018-03-19T08:34:37.553Z,46.50
2018-03-19T08:37:05.093Z,45.90
2018-03-19T08:39:32.634Z,46.70
2018-03-19T08:42:00.354Z,46.00
2018-03-19T08:44:27.894Z,46.70
2018-03-19T08:46:55.439Z,46.20
2018-03-19T08:49:23.317Z,46.10
2018-03-19T08:51:50.862Z,46.40
2018-03-19T08:54:18.417Z,46.40
2018-03-19T08:56:46.519Z,46.40
2018-03-19T08:59:14.066Z,46.60
2018-03-19T09:01:41.649Z,45.80
2018-03-19T09:04:09.298Z,45.50
2018-03-19T09:06:36.843Z,46.20
2018-03-19T09:09:04.410Z,46.10
2018-03-19T09:11:32.338Z,46.30
2018-03-19T09:13:59.882Z,46.80
2018-03-19T09:16:27.466Z,47.00
2018-03-19T09:18:55.270Z,46.80
2018-03-19T09:21:22.818Z,45.80
2018-03-19T09:23:50.363Z,44.90
2018-03-19T09:26:18.175Z,44.00
2018-03-19T09:28:45.884Z,43.20
2018-03-19T09:31:13.460Z,43.40
2018-03-19T09:33:41.051Z,43.10
2018-03-19T09:36:09.358Z,43.60
2018-03-19T09:38:36.910Z,43.30
2018-03-19T09:41:04.514Z,43.50
2018-03-19T09:43:32.057Z,43.40
2018-03-19T09:45:59.610Z,43.80
2018-03-19T09:48:27.709Z,43.40
2018-03-19T09:50:55.262Z,43.20
2018-03-19T09:53:22.806Z,43.40
2018-03-19T09:55:50.373Z,43.30
2018-03-19T09:58:17.922Z,42.80
2018-03-19T10:00:45.462Z,43.50
2018-03-19T10:03:13.390Z,43.90
2018-03-19T10:05:40.926Z,43.20
2018-03-19T10:08:08.480Z,43.20
2018-03-19T10:10:36.088Z,43.60
2018-03-19T10:13:04.694Z,43.20
2018-03-19T10:15:32.254Z,44.40
2018-03-19T10:17:59.818Z,44.00
2018-03-19T10:20:30.916Z,44.10
2018-03-19T10:22:58.472Z,43.20
2018-03-19T10:25:26.804Z,43.20
2018-03-19T10:27:56.359Z,43.10
2018-03-19T10:30:23.917Z,42.80
2018-03-19T10:32:51.473Z,43.50
2018-03-19T10:35:19.100Z,43.00
2018-03-19T10:37:46.651Z,42.60
2018-03-19T10:40:14.434Z,43.00
2018-03-19T10:42:42.211Z,42.50
2018-03-19T10:45:09.775Z,43.40
2018-03-19T10:47:37.335Z,43.30
2018-03-19T10:50:05.315Z,42.90
2018-03-19T10:52:33.638Z,42.80
2018-03-19T10:55:01.199Z,42.80
2018-03-19T10:57:28.820Z,42.80
2018-03-19T10:59:56.403Z,42.90
2018-03-19T11:02:28.587Z,42.70
2018-03-19T11:05:02.556Z,42.60
2018-03-19T11:07:36.555Z,42.20
2018-03-19T11:10:04.228Z,42.20
2018-03-19T11:12:31.807Z,43.10
2018-03-19T11:14:59.366Z,42.70
2018-03-19T11:17:27.757Z,42.30
2018-03-19T11:19:55.339Z,42.30
2018-03-19T11:22:22.906Z,42.80
2018-03-19T11:24:50.495Z,43.90
2018-03-19T11:27:18.060Z,44.80
2018-03-19T11:29:45.647Z,44.60
2018-03-19T11:32:13.642Z,44.30
2018-03-19T11:34:41.962Z,44.70
2018-03-19T11:37:11.037Z,44.80
2018-03-19T11:39:38.656Z,44.70
2018-03-19T11:42:08.747Z,44.60
2018-03-19T11:44:37.068Z,45.70
2018-03-19T11:47:04.660Z,45.70
2018-03-19T11:49:35.424Z,44.70
2018-03-19T11:52:03.764Z,45.20
2018-03-19T11:54:31.329Z,45.20
2018-03-19T11:56:59.227Z,45.30
2018-03-19T11:59:27.554Z,46.40
2018-03-19T12:01:55.141Z,46.40
2018-03-19T12:04:23.328Z,47.10
2018-03-19T12:06:50.893Z,46.70
2018-03-19T12:09:18.452Z,47.90
2018-03-19T12:11:46.878Z,48.00
2018-03-19T12:14:14.456Z,48.00
2018-03-19T12:16:42.025Z,48.20
2018-03-19T12:19:12.057Z,48.40
2018-03-19T12:21:39.607Z,48.90
2018-03-19T12:24:07.150Z,49.30
2018-03-19T12:26:34.839Z,49.60
2018-03-19T12:29:02.381Z,50.10
2018-03-19T12:31:29.930Z,50.00
2018-03-19T12:33:59.271Z,50.70
2018-03-19T12:36:26.839Z,51.10
2018-03-19T12:38:54.390Z,50.70
2018-03-19T12:41:22.464Z,51.00
2018-03-19T12:43:50.791Z,51.90
2018-03-19T12:46:18.550Z,52.10
2018-03-19T12:48:46.458Z,52.20
2018-03-19T12:51:15.526Z,52.40
2018-03-19T12:53:43.083Z,51.80
2018-03-19T12:56:12.927Z,52.40
2018-03-19T12:58:40.466Z,52.20
2018-03-19T13:01:08.012Z,52.30
2018-03-19T13:03:35.776Z,52.00
2018-03-19T13:06:03.335Z,52.10
2018-03-19T13:08:30.870Z,52.80
2018-03-19T13:10:58.463Z,52.40
2018-03-19T13:13:26.005Z,53.20
2018-03-19T13:15:53.572Z,54.00
2018-03-19T13:18:21.320Z,54.80
2018-03-19T13:20:48.866Z,58.30
2018-03-19T13:23:16.418Z,61.40
2018-03-19T13:25:44.258Z,65.80
2018-03-19T13:28:11.884Z,72.90
2018-03-19T13:30:39.543Z,76.50
2018-03-19T13:33:07.148Z,78.70
2018-03-19T13:35:34.699Z,80.00
2018-03-19T13:38:02.249Z,80.80
2018-03-19T13:40:30.058Z,80.00
2018-03-19T13:43:00.833Z,79.70
2018-03-19T13:45:28.385Z,80.10
2018-03-19T13:47:56.096Z,81.10
2018-03-19T13:50:24.419Z,81.60
2018-03-19T13:52:55.100Z,81.50
2018-03-19T13:55:26.615Z,81.90
2018-03-19T13:57:54.188Z,82.10
2018-03-19T14:00:21.734Z,82.00
2018-03-19T14:08:15.871Z,81.30
2018-03-19T14:10:43.490Z,81.60
2018-03-19T14:13:11.414Z,81.60
2018-03-19T14:15:38.976Z,81.70
2018-03-19T14:18:07.450Z,82.00
2018-03-19T14:20:36.032Z,82.30
2018-03-19T14:23:03.578Z,81.90
2018-03-19T14:25:31.126Z,82.70
2018-03-19T14:27:58.872Z,82.30
2018-03-19T14:30:27.141Z,81.90
2018-03-19T14:32:55.354Z,81.90
2018-03-19T14:35:22.894Z,81.90
2018-03-19T14:37:50.439Z,82.50
2018-03-19T14:40:18.038Z,82.90
2018-03-19T14:42:46.211Z,84.10
2018-03-19T14:45:13.754Z,83.90
2018-03-19T14:47:41.301Z,84.30
2018-03-19T14:50:09.208Z,84.50
2018-03-19T14:52:36.828Z,84.60
2018-03-19T14:55:04.388Z,84.40
2018-03-19T14:57:31.987Z,84.50
2018-03-19T14:59:59.708Z,84.30
2018-03-19T15:02:27.272Z,84.90
2018-03-19T15:04:54.828Z,85.40
2018-03-19T15:07:22.374Z,85.50
2018-03-19T15:09:50.497Z,85.30
2018-03-19T15:12:18.039Z,84.50
2018-03-19T15:14:45.587Z,83.50
2018-03-19T15:17:13.302Z,83.30
2018-03-19T15:19:41.611Z,83.80
2018-03-19T15:22:09.150Z,83.80
2018-03-19T15:24:36.875Z,83.30
2018-03-19T15:27:04.429Z,83.70
2018-03-19T15:29:31.998Z,84.10
2018-03-19T15:32:00.340Z,84.40
2018-03-19T15:34:27.894Z,84.40
2018-03-19T15:36:55.433Z,84.70
2018-03-19T15:39:23.261Z,84.40
2018-03-19T15:41:50.816Z,84.40
2018-03-19T15:44:18.363Z,84.10
2018-03-19T15:46:45.943Z,83.70
2018-03-19T15:49:13.488Z,83.70
2018-03-19T15:51:41.046Z,83.60
2018-03-19T15:54:08.817Z,82.80
2018-03-19T15:56:36.370Z,82.40
2018-03-19T15:59:03.919Z,81.70
2018-03-19T16:01:31.523Z,81.50
2018-03-19T16:03:59.066Z,80.80
2018-03-19T16:06:26.614Z,81.30
2018-03-19T16:08:54.379Z,80.60
2018-03-19T16:11:21.934Z,79.70
2018-03-19T16:13:49.473Z,79.20
2018-03-19T16:16:17.053Z,78.80
2018-03-19T16:18:44.598Z,78.40
2018-03-19T16:21:12.139Z,79.20
2018-03-19T16:23:39.943Z,80.70
2018-03-19T16:26:07.492Z,81.70
2018-03-19T16:28:35.074Z,81.30
2018-03-19T16:31:02.883Z,80.90
2018-03-19T16:33:30.449Z,81.60
2018-03-19T16:35:57.998Z,81.50
2018-03-19T16:38:25.915Z,83.40
2018-03-19T16:40:54.255Z,84.40
2018-03-19T16:43:21.802Z,84.40
2018-03-19T16:45:49.719Z,84.50
2018-03-19T16:48:17.270Z,84.50
2018-03-19T16:50:44.817Z,85.30
2018-03-19T16:53:12.527Z,85.90
2018-03-19T16:55:40.849Z,86.40
2018-03-19T16:58:08.396Z,86.40
2018-03-19T17:00:36.299Z,86.70
2018-03-19T17:03:04.180Z,87.10
2018-03-19T17:05:31.738Z,87.00
2018-03-19T17:07:59.290Z,87.00
2018-03-19T17:10:26.897Z,87.00
2018-03-19T17:12:54.496Z,87.40
2018-03-19T17:15:22.042Z,87.10
2018-03-19T17:17:49.728Z,87.10
2018-03-19T17:20:17.290Z,87.30
2018-03-19T17:22:44.890Z,87.00
2018-03-19T17:25:13.280Z,87.30
2018-03-19T17:27:41.590Z,87.10
2018-03-19T17:30:09.470Z,87.10
2018-03-19T17:32:37.327Z,87.20
2018-03-19T17:35:04.882Z,87.10
2018-03-19T17:37:32.429Z,87.00
2018-03-19T17:40:00.034Z,87.20
2018-03-19T17:42:28.366Z,87.00
2018-03-19T17:44:55.974Z,87.10
2018-03-19T17:47:23.531Z,86.30
2018-03-19T17:49:51.082Z,86.60
2018-03-19T17:52:19.017Z,86.70
2018-03-19T17:54:46.573Z,87.50
2018-03-19T17:57:14.122Z,87.10
2018-03-19T17:59:41.729Z,87.30
2018-03-19T18:02:09.283Z,86.50
2018-03-19T18:04:36.846Z,86.70
2018-03-19T18:07:04.480Z,85.80
2018-03-19T18:09:32.611Z,85.90
2018-03-19T18:12:00.165Z,85.90
2018-03-19T18:14:28.813Z,85.60
2018-03-19T18:16:56.356Z,85.50
2018-03-19T18:19:23.907Z,85.60
2018-03-19T18:21:51.753Z,85.00
2018-03-19T18:24:19.310Z,84.90
2018-03-19T18:26:46.853Z,84.50
2018-03-19T18:29:14.577Z,84.60
2018-03-19T18:31:42.117Z,84.30
2018-03-19T18:34:09.690Z,83.80
2018-03-19T18:36:37.410Z,84.00
2018-03-19T18:39:05.715Z,83.80
2018-03-19T18:41:33.243Z,83.80
2018-03-19T18:44:00.969Z,83.40
2018-03-19T18:46:28.496Z,83.40
2018-03-19T18:48:56.039Z,83.10
2018-03-19T18:51:23.716Z,82.70
2018-03-19T18:53:51.396Z,82.10
2018-03-19T18:56:18.927Z,81.90
2018-03-19T18:58:46.465Z,81.70
2018-03-19T19:01:14.587Z,80.70
2018-03-19T19:03:42.125Z,80.40
2018-03-19T19:06:09.662Z,79.90
2018-03-19T19:08:37.246Z,79.20
2018-03-19T19:11:04.778Z,78.90
2018-03-19T19:13:32.320Z,78.20
2018-03-19T19:16:00.668Z,79.00
2018-03-19T19:18:28.205Z,78.20
2018-03-19T19:20:55.731Z,77.90
2018-03-19T19:23:24.175Z,78.00
2018-03-19T19:25:51.711Z,77.90
2018-03-19T19:28:19.241Z,77.90
2018-03-19T19:30:47.160Z,78.00
2018-03-19T19:33:15.047Z,77.70
2018-03-19T19:35:42.579Z,77.60
2018-03-19T19:38:10.164Z,77.40
2018-03-19T19:40:37.962Z,77.30
2018-03-19T19:43:05.493Z,77.30
2018-03-19T19:45:34.140Z,77.70
2018-03-19T19:48:01.671Z,77.10
2018-03-19T19:50:29.204Z,76.80
2018-03-19T19:52:57.139Z,76.50
2018-03-19T19:55:24.691Z,75.70
2018-03-19T19:57:52.224Z,75.00
2018-03-19T20:00:20.122Z,75.10
2018-03-19T20:02:47.660Z,74.50
2018-03-19T20:05:15.192Z,74.20
2018-03-19T20:07:42.786Z,74.50
2018-03-19T20:10:10.316Z,74.00
2018-03-19T20:12:37.994Z,73.80
2018-03-19T20:15:05.568Z,73.10
2018-03-19T20:17:33.099Z,72.30
2018-03-19T20:20:00.635Z,72.50
2018-03-19T20:22:29.329Z,72.00
2018-03-19T20:24:56.840Z,71.90
2018-03-19T20:27:24.379Z,70.40
2018-03-19T20:29:51.978Z,70.10
2018-03-19T20:32:20.288Z,68.90
2018-03-19T20:34:47.826Z,68.90
2018-03-19T20:37:16.500Z,69.00
2018-03-19T20:39:44.038Z,68.30
2018-03-19T20:42:12.005Z,66.90
2018-03-19T20:44:39.540Z,65.50
2018-03-19T20:47:07.071Z,65.70
2018-03-19T20:49:34.641Z,64.50
2018-03-19T20:52:02.453Z,65.10
2018-03-19T20:54:30.019Z,63.70
2018-03-19T20:56:57.552Z,64.70
2018-03-19T20:59:25.224Z,63.10
2018-03-19T21:01:53.154Z,62.60
2018-03-19T21:04:20.791Z,62.20
2018-03-19T21:06:49.088Z,60.50
2018-03-19T21:09:17.729Z,60.20
2018-03-19T21:11:45.267Z,60.10
2018-03-19T21:14:12.804Z,59.80
2018-03-19T21:16:40.705Z,60.40
2018-03-19T21:19:08.245Z,59.90
2018-03-19T21:21:35.788Z,59.40
2018-03-19T21:24:03.623Z,59.60
2018-03-19T21:26:31.165Z,59.40
2018-03-19T21:28:58.707Z,59.90
2018-03-19T21:31:26.488Z,59.80
2018-03-19T21:33:54.027Z,60.60
2018-03-19T21:36:21.565Z,59.40
2018-03-19T21:38:49.465Z,59.50
2018-03-19T21:41:17.531Z,59.80
2018-03-19T21:43:45.061Z,59.10
2018-03-19T21:46:12.587Z,58.80
2018-03-19T21:48:40.316Z,58.70
2018-03-19T21:51:07.954Z,58.80
2018-03-19T21:53:35.508Z,58.40
2018-03-19T21:56:03.214Z,58.60
2018-03-19T21:58:30.747Z,58.60
2018-03-19T22:00:58.622Z,58.80
2018-03-19T22:03:26.160Z,58.60
2018-03-19T22:05:53.696Z,57.90
2018-03-19T22:08:21.613Z,58.00
2018-03-19T22:10:49.157Z,58.40
2018-03-19T22:13:16.699Z,58.70
2018-03-19T22:15:44.267Z,58.90
2018-03-19T22:18:11.821Z,58.10
2018-03-19T22:20:39.348Z,58.20
2018-03-19T22:23:07.985Z,59.30
2018-03-19T22:25:35.543Z,59.30
2018-03-19T22:28:03.071Z,58.90
2018-03-19T22:30:30.674Z,58.60
2018-03-19T22:32:58.212Z,58.90
2018-03-19T22:35:25.748Z,58.60
2018-03-19T22:37:54.270Z,59.00
2018-03-19T22:40:21.817Z,59.00
2018-03-19T22:42:49.356Z,58.80
2018-03-19T22:45:17.149Z,58.60
2018-03-19T22:47:44.678Z,58.80
2018-03-19T22:50:12.242Z,58.70
2018-03-19T22:52:39.889Z,59.20
2018-03-19T22:55:07.424Z,59.60
2018-03-19T22:57:35.728Z,60.00
2018-03-19T23:00:03.529Z,60.00
2018-03-19T23:02:31.069Z,59.90
2018-03-19T23:08:04.748Z,61.20
2018-03-19T23:10:32.471Z,61.70
2018-03-19T23:13:00.000Z,62.10
2018-03-19T23:15:27.543Z,62.50
2018-03-19T23:17:55.112Z,63.40
2018-03-19T23:20:22.646Z,63.10
2018-03-19T23:22:50.184Z,63.30
2018-03-19T23:25:18.032Z,64.60
2018-03-19T23:27:45.569Z,64.50
2018-03-19T23:30:13.120Z,65.00
2018-03-19T23:32:41.227Z,64.90
2018-03-19T23:35:08.764Z,65.10
2018-03-19T23:37:36.292Z,65.70
2018-03-19T23:40:04.009Z,67.80
2018-03-19T23:42:31.712Z,68.30
2018-03-19T23:45:00.018Z,71.60
2018-03-19T23:47:27.548Z,71.50
2018-03-19T23:49:55.261Z,73.60
2018-03-19T23:52:22.811Z,74.80
2018-03-19T23:54:50.349Z,76.20
2018-03-19T23:57:18.252Z,79.00
2018-03-19T23:59:45.795Z,79.10
